Arletta, Washington
Current Conditions -  °F | °C
As of 9:53 PM on Friday 28 Nov 2014 (Local Time) from KTIW Reporting Station
Overcast Overcast  
Wind Chill:   Ceiling: 6000
Heat Index:   Visibility: 10mi
Dew Point:   Wind: 9mph
Humidity: 83%   Direction: 200°SSW
Pressure: 29.52"   Gusts: NA
Location:  47.2986°N, 122.616°W
Report Text: KTIW 290553Z AUTO 20008KT 10SM BKN060 OVC075 04/02 A2952 RMK AO2 SLP999 60013 T00440017 10050 20033 51004
Loading
Personal Weather Stations






























Interactive Weather Map New forecast layout! Learn more

10-Day Weather Forecast

Advertisements
Track Severe Weather on mobile